Time;durP1;ratioP1;P1;durP2;ratioP2;P2;SDS_P1;SDS_P2;PMS_P1;PMS_P2;Temp;Humidity;BMP_temperature;BMP_pressure;BME280_temperature;BME280_humidity;BME280_pressure;Samples;Min_cycle;Max_cycle;Signal;HPM_P1;HPM_P2
2022/06/19 00:01:21;;;;;;;10.48;1.80;;;14.60;99.90;;;;;;5068690;28;20139;-80
2022/06/19 00:03:50;;;;;;;9.57;1.80;;;14.50;99.90;;;;;;5069911;28;20461;-80
2022/06/19 00:06:17;;;;;;;13.00;3.25;;;14.50;99.90;;;;;;5074624;28;20040;-80
2022/06/19 00:08:45;;;;;;;13.90;2.05;;;14.50;99.90;;;;;;5071239;28;20550;-79
2022/06/19 00:11:12;;;;;;;13.25;2.00;;;14.50;99.90;;;;;;5069423;28;20108;-80
2022/06/19 00:13:38;;;;;;;9.93;2.15;;;14.50;99.90;;;;;;5069919;28;20111;-80
2022/06/19 00:16:04;;;;;;;14.02;2.75;;;14.40;99.90;;;;;;5070104;28;20048;-80
2022/06/19 00:18:30;;;;;;;12.35;1.52;;;14.50;99.90;;;;;;5069302;28;20037;-80
2022/06/19 00:20:56;;;;;;;10.07;2.58;;;14.40;99.90;;;;;;5070177;28;20047;-82
2022/06/19 00:23:22;;;;;;;10.93;2.90;;;14.40;99.90;;;;;;5053830;28;20048;-80
2022/06/19 00:25:47;;;;;;;11.68;1.40;;;14.40;99.90;;;;;;5069707;28;20181;-80
2022/06/19 00:28:13;;;;;;;11.55;2.78;;;14.40;99.90;;;;;;5071052;28;20169;-80
2022/06/19 00:30:38;;;;;;;14.32;3.30;;;14.40;99.90;;;;;;5069968;28;20048;-80
2022/06/19 00:33:04;;;;;;;14.45;3.45;;;14.40;99.90;;;;;;5052893;28;20451;-80
2022/06/19 00:35:30;;;;;;;16.13;2.05;;;14.40;99.90;;;;;;5069857;28;20037;-80
2022/06/19 00:37:57;;;;;;;13.32;2.10;;;14.40;99.90;;;;;;5069271;28;20036;-80
2022/06/19 00:40:25;;;;;;;10.45;2.13;;;14.40;99.90;;;;;;5069325;28;20044;-80
2022/06/19 00:42:51;;;;;;;19.70;2.83;;;14.40;99.90;;;;;;5069722;28;20102;-81
2022/06/19 00:45:27;;;;;;;13.02;2.28;;;14.40;99.90;;;;;;5070189;28;20041;-80
2022/06/19 00:47:52;;;;;;;13.30;2.55;;;14.40;99.90;;;;;;5066133;28;20562;-80
2022/06/19 00:50:27;;;;;;;11.88;1.63;;;14.40;99.90;;;;;;5063912;28;20123;-80
2022/06/19 00:52:53;;;;;;;;;;;14.40;99.90;;;;;;5069933;28;20048;-81
2022/06/19 00:55:25;;;;;;;13.35;1.70;;;14.30;99.90;;;;;;5069763;28;19924;-80
2022/06/19 00:57:59;;;;;;;11.10;1.48;;;14.30;99.90;;;;;;5075948;28;20040;-80
2022/06/19 01:00:27;;;;;;;9.27;1.65;;;14.20;99.90;;;;;;5069768;28;20040;-80
2022/06/19 01:02:57;;;;;;;10.02;1.80;;;14.30;99.90;;;;;;5069705;28;20068;-80
2022/06/19 01:05:25;;;;;;;11.52;1.50;;;14.40;99.90;;;;;;5071589;28;20063;-80
2022/06/19 01:07:51;;;;;;;11.70;1.33;;;14.40;99.90;;;;;;5068485;28;20036;-80
2022/06/19 01:10:18;;;;;;;11.00;1.50;;;14.40;99.90;;;;;;5069999;28;20037;-79
2022/06/19 01:12:47;;;;;;;10.55;1.33;;;14.50;99.90;;;;;;5071162;28;20041;-80
2022/06/19 01:15:18;;;;;;;6.22;1.63;;;14.50;99.90;;;;;;5071124;28;20032;-80
2022/06/19 01:17:47;;;;;;;9.30;1.67;;;14.50;99.90;;;;;;5073936;28;20040;-79
2022/06/19 01:20:14;;;;;;;9.73;2.90;;;14.60;99.90;;;;;;5074743;28;20063;-81
2022/06/19 01:22:54;;;;;;;8.80;1.65;;;14.60;99.90;;;;;;5090582;28;20043;-80
2022/06/19 01:25:24;;;;;;;11.27;2.25;;;14.60;99.90;;;;;;5056354;28;20041;-80
2022/06/19 01:30:45;;;;;;;12.50;1.95;;;14.50;99.90;;;;;;5074826;28;20052;-80
2022/06/19 01:33:16;;;;;;;10.55;1.08;;;14.60;99.90;;;;;;5059993;28;20182;-80
2022/06/19 01:35:45;;;;;;;12.93;1.55;;;14.60;99.90;;;;;;5075989;28;20047;-79
2022/06/19 01:38:14;;;;;;;10.88;1.85;;;14.60;99.90;;;;;;5076234;28;20156;-80
2022/06/19 01:40:41;;;;;;;14.65;2.55;;;14.60;99.90;;;;;;5076892;28;20029;-80
2022/06/19 01:43:08;;;;;;;6.38;1.20;;;14.60;99.90;;;;;;5076646;28;20311;-79
2022/06/19 01:45:35;;;;;;;4.97;0.40;;;14.60;99.90;;;;;;5059021;28;20045;-82
2022/06/19 01:48:01;;;;;;;5.15;0.70;;;14.60;99.90;;;;;;5076490;28;20164;-79
2022/06/19 01:50:30;;;;;;;7.38;0.80;;;14.60;99.90;;;;;;5076164;28;20497;-80
2022/06/19 01:53:07;;;;;;;5.93;0.65;;;14.60;99.90;;;;;;5075841;28;20157;-80
2022/06/19 01:55:32;;;;;;;8.02;1.67;;;14.60;99.90;;;;;;5076462;28;20036;-80
2022/06/19 01:57:59;;;;;;;9.45;0.77;;;14.70;99.90;;;;;;5058667;28;20029;-80
2022/06/19 02:00:29;;;;;;;5.03;0.57;;;14.70;99.90;;;;;;5078072;28;20045;-80
2022/06/19 02:03:04;;;;;;;2.35;0.43;;;14.70;99.90;;;;;;5076187;28;20083;-80
2022/06/19 02:05:31;;;;;;;8.80;0.82;;;14.70;99.90;;;;;;5075424;28;20052;-80
2022/06/19 02:07:57;;;;;;;5.05;0.50;;;14.60;99.90;;;;;;5075894;28;20433;-80
2022/06/19 02:10:23;;;;;;;5.95;1.00;;;14.60;99.90;;;;;;5076594;28;20036;-80
2022/06/19 02:12:50;;;;;;;8.38;0.77;;;14.60;99.90;;;;;;5067588;28;20037;-80
2022/06/19 02:15:15;;;;;;;4.00;0.90;;;14.60;99.90;;;;;;5075261;28;20075;-81
2022/06/19 02:17:47;;;;;;;8.23;1.05;;;14.60;99.90;;;;;;5077542;28;20350;-80
2022/06/19 02:20:12;;;;;;;6.78;1.70;;;14.60;99.90;;;;;;5077615;28;20066;-79
2022/06/19 02:22:38;;;;;;;9.55;1.25;;;14.50;99.90;;;;;;5075209;28;20494;-80
2022/06/19 02:25:04;;;;;;;12.15;1.23;;;14.50;99.90;;;;;;5075100;28;20123;-80
2022/06/19 02:27:32;;;;;;;8.40;1.25;;;14.50;99.90;;;;;;5073590;28;20040;-80
2022/06/19 02:30:01;;;;;;;14.95;1.95;;;14.60;99.90;;;;;;5074177;28;20512;-80
2022/06/19 02:32:33;;;;;;;8.90;1.02;;;14.50;99.90;;;;;;5075240;28;20388;-79
2022/06/19 02:34:59;;;;;;;7.22;1.05;;;14.60;99.90;;;;;;5076004;28;20049;-80
2022/06/19 02:37:29;;;;;;;9.13;1.00;;;14.70;99.90;;;;;;5075699;28;20063;-80
2022/06/19 02:40:12;;;;;;;8.52;0.90;;;14.70;99.90;;;;;;5075922;28;20051;-79
2022/06/19 02:42:47;;;;;;;12.00;1.60;;;14.70;99.90;;;;;;5057573;28;20094;-79
2022/06/19 02:45:29;;;;;;;7.88;2.10;;;14.70;99.90;;;;;;5074930;28;20128;-80
2022/06/19 02:47:56;;;;;;;9.82;1.55;;;14.70;99.90;;;;;;5073354;28;20047;-80
2022/06/19 02:50:26;;;;;;;8.48;1.42;;;14.70;99.90;;;;;;5074821;28;20068;-80
2022/06/19 02:52:52;;;;;;;12.70;1.88;;;14.70;99.90;;;;;;5073939;28;20119;-80
2022/06/19 02:55:18;;;;;;;8.63;1.33;;;14.70;99.90;;;;;;5074176;28;20525;-80
2022/06/19 02:57:44;;;;;;;10.98;1.58;;;14.70;99.90;;;;;;5080978;28;20393;-80
2022/06/19 03:00:18;;;;;;;15.35;1.20;;;14.70;99.90;;;;;;5074140;28;20036;-79
2022/06/19 03:02:44;;;;;;;10.82;1.50;;;14.70;99.90;;;;;;5073942;28;20048;-79
2022/06/19 03:05:17;;;;;;;7.72;1.38;;;14.70;99.90;;;;;;5056693;28;20128;-79
2022/06/19 03:07:43;;;;;;;9.75;2.40;;;14.70;99.90;;;;;;5076235;28;20123;-79
2022/06/19 03:10:09;;;;;;;9.93;1.73;;;14.60;99.90;;;;;;5074182;28;20149;-80
2022/06/19 03:12:34;;;;;;;10.07;1.52;;;14.70;99.90;;;;;;5057735;28;20067;-80
2022/06/19 03:15:00;;;;;;;10.13;1.80;;;14.70;99.90;;;;;;5073748;28;20093;-79
2022/06/19 03:17:26;;;;;;;8.95;1.73;;;14.70;99.90;;;;;;5077847;28;20479;-80
2022/06/19 03:19:51;;;;;;;9.75;2.15;;;14.70;99.90;;;;;;5073593;28;20040;-80
2022/06/19 03:22:17;;;;;;;9.45;2.35;;;14.60;99.90;;;;;;5073175;28;20402;-80
2022/06/19 03:24:42;;;;;;;9.73;1.90;;;14.60;99.90;;;;;;5057511;28;20036;-79
2022/06/19 03:27:10;;;;;;;9.07;0.80;;;14.60;99.90;;;;;;5073306;28;20452;-79
2022/06/19 03:29:36;;;;;;;13.07;1.10;;;14.70;99.90;;;;;;5073716;28;20040;-80
2022/06/19 03:32:02;;;;;;;8.82;1.70;;;14.70;99.90;;;;;;5073368;28;20042;-80
2022/06/19 03:34:27;;;;;;;12.32;1.65;;;14.70;99.90;;;;;;5075217;28;20094;-79
2022/06/19 03:36:53;;;;;;;13.40;2.00;;;14.60;99.90;;;;;;5075721;28;20051;-80
2022/06/19 03:39:19;;;;;;;9.60;1.13;;;14.70;99.90;;;;;;5072544;28;20546;-80
2022/06/19 03:41:46;;;;;;;7.60;1.30;;;14.60;99.90;;;;;;5073548;28;20056;-80
2022/06/19 03:44:11;;;;;;;10.80;1.35;;;14.70;99.90;;;;;;5074212;28;20489;-80
2022/06/19 03:46:37;;;;;;;7.70;1.05;;;14.70;99.90;;;;;;5056093;28;20036;-79
2022/06/19 03:49:03;;;;;;;11.02;1.17;;;14.60;99.90;;;;;;5056191;28;20063;-80
2022/06/19 03:51:29;;;;;;;8.32;1.45;;;14.60;99.90;;;;;;5073038;28;20115;-80
2022/06/19 03:53:56;;;;;;;8.02;0.90;;;14.50;99.90;;;;;;5073584;28;20120;-80
2022/06/19 03:56:32;;;;;;;7.07;1.02;;;14.50;99.90;;;;;;5073195;28;20119;-80
2022/06/19 03:58:58;;;;;;;9.25;1.27;;;14.50;99.90;;;;;;5073018;28;20143;-80
2022/06/19 04:01:33;;;;;;;8.38;1.60;;;14.50;99.90;;;;;;5073317;28;20047;-80
2022/06/19 04:03:59;;;;;;;3.83;0.47;;;14.50;99.90;;;;;;5055903;28;20098;-80
2022/06/19 04:06:28;;;;;;;6.22;0.75;;;14.40;99.90;;;;;;5079032;28;20036;-80
2022/06/19 04:08:54;;;;;;;8.80;1.08;;;14.40;99.90;;;;;;5072855;28;20399;-80
2022/06/19 04:11:22;;;;;;;5.63;0.98;;;14.40;99.90;;;;;;5073162;28;20072;-81
2022/06/19 04:13:48;;;;;;;5.10;0.93;;;14.30;99.90;;;;;;5072801;28;20069;-80
2022/06/19 04:16:22;;;;;;;10.00;0.90;;;14.30;99.90;;;;;;5073225;28;20387;-79
2022/06/19 04:18:49;;;;;;;4.68;1.13;;;14.30;99.90;;;;;;5055477;28;20037;-80
2022/06/19 04:21:21;;;;;;;6.70;1.42;;;14.30;99.90;;;;;;5072182;28;20048;-80
2022/06/19 04:23:49;;;;;;;5.25;1.10;;;14.20;99.90;;;;;;5054946;28;20075;-79
2022/06/19 04:26:16;;;;;;;2.40;0.68;;;14.10;99.90;;;;;;5071238;28;20045;-80
2022/06/19 04:28:42;;;;;;;6.95;0.43;;;14.10;99.90;;;;;;5055592;28;20517;-79
2022/06/19 04:31:09;;;;;;;5.20;0.40;;;14.00;99.90;;;;;;5073414;28;20055;-80
2022/06/19 04:33:38;;;;;;;5.60;1.30;;;14.00;99.90;;;;;;5072833;28;20126;-80
2022/06/19 04:36:09;;;;;;;13.80;1.80;;;14.10;99.90;;;;;;5077791;28;20046;-80
2022/06/19 04:38:39;;;;;;;5.45;1.00;;;14.10;99.90;;;;;;5072592;28;20041;-80
2022/06/19 04:41:05;;;;;;;6.63;0.52;;;14.20;99.90;;;;;;5073130;28;20047;-81
2022/06/19 04:43:31;;;;;;;4.78;0.70;;;14.20;99.90;;;;;;5073160;28;20044;-80
2022/06/19 04:46:04;;;;;;;5.60;0.60;;;14.30;99.90;;;;;;5072873;28;20065;-80
2022/06/19 04:48:30;;;;;;;6.50;0.55;;;14.30;99.90;;;;;;5071948;28;20499;-80
2022/06/19 04:50:55;;;;;;;5.05;0.70;;;14.40;99.90;;;;;;5078056;28;20044;-81
2022/06/19 04:53:21;;;;;;;4.95;0.73;;;14.50;99.90;;;;;;5079289;28;20402;-81
2022/06/19 04:55:46;;;;;;;6.72;0.68;;;14.50;99.90;;;;;;5080547;28;20518;-81
2022/06/19 04:58:12;;;;;;;6.85;0.82;;;14.60;99.90;;;;;;5078431;28;20036;-81
2022/06/19 05:00:40;;;;;;;5.63;0.70;;;14.70;99.90;;;;;;5080318;28;20070;-82
2022/06/19 05:03:05;;;;;;;8.73;0.73;;;14.80;99.90;;;;;;5080826;28;20606;-81
2022/06/19 05:05:31;;;;;;;9.98;0.73;;;14.90;99.90;;;;;;5065129;28;20068;-81
2022/06/19 05:07:56;;;;;;;7.25;0.98;;;15.00;99.90;;;;;;5083229;28;20051;-81
2022/06/19 05:10:22;;;;;;;4.15;0.70;;;15.20;99.90;;;;;;5083378;28;20462;-80
2022/06/19 05:12:47;;;;;;;9.75;0.85;;;15.20;99.90;;;;;;5082006;28;20037;-80
2022/06/19 05:15:13;;;;;;;8.93;0.80;;;15.20;99.90;;;;;;5095302;28;20089;-81
2022/06/19 05:17:39;;;;;;;9.40;0.80;;;15.20;99.90;;;;;;5083148;28;20037;-80
2022/06/19 05:20:05;;;;;;;4.00;1.25;;;15.30;99.90;;;;;;5082684;28;20048;-80
2022/06/19 05:22:31;;;;;;;7.72;1.60;;;15.20;99.90;;;;;;5081586;28;20044;-81
2022/06/19 05:24:57;;;;;;;6.80;1.55;;;15.20;99.90;;;;;;5080217;28;20102;-80
2022/06/19 05:27:22;;;;;;;6.18;0.57;;;15.10;99.90;;;;;;5079459;28;20089;-79
2022/06/19 05:29:48;;;;;;;5.85;0.60;;;15.00;99.90;;;;;;5077178;28;20044;-79
2022/06/19 05:32:14;;;;;;;7.18;1.02;;;15.00;99.90;;;;;;5075850;28;20036;-80
2022/06/19 05:34:39;;;;;;;4.53;0.88;;;15.00;99.90;;;;;;5074846;28;20064;-80
2022/06/19 05:37:05;;;;;;;5.70;1.10;;;15.00;99.90;;;;;;5078723;28;20041;-80
2022/06/19 05:39:31;;;;;;;6.65;1.20;;;15.00;99.90;;;;;;5084046;28;20060;-80
2022/06/19 05:41:57;;;;;;;8.63;1.05;;;15.10;99.90;;;;;;5078720;28;20044;-79
2022/06/19 05:44:26;;;;;;;9.15;1.73;;;15.10;99.90;;;;;;5077128;28;20044;-80
2022/06/19 05:46:53;;;;;;;5.97;0.98;;;15.20;99.90;;;;;;5076037;28;20075;-79
2022/06/19 05:49:19;;;;;;;5.50;0.70;;;15.20;99.90;;;;;;5076956;28;20063;-80
2022/06/19 05:51:45;;;;;;;8.45;1.00;;;15.20;99.90;;;;;;5075755;28;20530;-79
2022/06/19 05:54:11;;;;;;;10.10;0.77;;;15.10;99.90;;;;;;5076550;28;20034;-79
2022/06/19 05:56:36;;;;;;;8.48;0.80;;;15.00;99.90;;;;;;5074826;28;20105;-80
2022/06/19 05:59:03;;;;;;;11.25;2.53;;;14.90;99.90;;;;;;5059955;28;20041;-80
2022/06/19 06:01:29;;;;;;;11.32;1.13;;;14.90;99.90;;;;;;5075008;28;20193;-80
2022/06/19 06:03:56;;;;;;;12.25;3.85;;;14.90;99.90;;;;;;5076318;28;20068;-80
2022/06/19 06:06:27;;;;;;;10.65;1.75;;;15.00;99.90;;;;;;5077657;28;20050;-81
2022/06/19 06:08:53;;;;;;;10.30;1.60;;;14.90;99.90;;;;;;5077772;28;20032;-80
2022/06/19 06:11:20;;;;;;;5.32;0.65;;;15.00;99.90;;;;;;5079221;28;20085;-81
2022/06/19 06:13:46;;;;;;;4.72;1.02;;;15.10;99.90;;;;;;5078455;28;20044;-80
2022/06/19 06:16:14;;;;;;;7.40;0.95;;;15.20;99.90;;;;;;5077486;28;20084;-80
2022/06/19 06:18:40;;;;;;;11.43;1.67;;;15.20;99.90;;;;;;5077822;28;20063;-80
2022/06/19 06:21:09;;;;;;;9.07;1.00;;;15.10;99.90;;;;;;5077810;28;20044;-81
2022/06/19 06:23:35;;;;;;;9.77;0.80;;;15.00;99.90;;;;;;5078148;28;20071;-81
2022/06/19 06:26:15;;;;;;;10.48;1.17;;;15.00;99.90;;;;;;5076956;28;20044;-80
2022/06/19 06:28:43;;;;;;;9.85;1.52;;;15.00;99.90;;;;;;5080463;28;20123;-81
2022/06/19 06:31:09;;;;;;;13.23;3.22;;;15.00;99.90;;;;;;5079139;28;20045;-81
2022/06/19 06:33:35;;;;;;;13.52;1.35;;;14.90;99.90;;;;;;5078364;28;20123;-80
2022/06/19 06:36:01;;;;;;;12.38;1.75;;;14.70;99.90;;;;;;5081654;28;20082;-81
2022/06/19 06:38:27;;;;;;;8.05;0.95;;;14.60;99.90;;;;;;5077884;28;20182;-80
2022/06/19 06:40:53;;;;;;;8.27;1.40;;;14.50;99.90;;;;;;5079006;28;20040;-81
2022/06/19 06:43:20;;;;;;;6.75;1.10;;;14.60;99.90;;;;;;5081208;28;20496;-80
2022/06/19 06:45:46;;;;;;;4.20;0.77;;;14.60;99.90;;;;;;5083297;28;20104;-80
2022/06/19 06:48:12;;;;;;;9.57;1.70;;;14.60;99.90;;;;;;5080370;28;20067;-80
2022/06/19 06:50:39;;;;;;;8.52;1.52;;;14.60;99.90;;;;;;5079868;28;20063;-81
2022/06/19 06:53:06;;;;;;;11.35;1.17;;;14.60;99.90;;;;;;5061471;28;20090;-81
2022/06/19 06:55:31;;;;;;;9.98;1.83;;;14.60;99.90;;;;;;5063603;28;20036;-80
2022/06/19 06:57:57;;;;;;;9.55;1.15;;;14.50;99.90;;;;;;5082711;28;20043;-80
2022/06/19 07:00:24;;;;;;;9.52;1.40;;;14.60;99.90;;;;;;5071120;28;20033;-80
2022/06/19 07:02:50;;;;;;;9.30;0.93;;;14.50;99.90;;;;;;5077630;28;20048;-80
2022/06/19 07:05:16;;;;;;;8.20;0.85;;;14.60;99.90;;;;;;5075524;28;20127;-80
2022/06/19 07:07:42;;;;;;;10.63;1.52;;;14.70;99.90;;;;;;5075910;28;20094;-79
2022/06/19 07:10:08;;;;;;;6.95;1.65;;;14.70;99.90;;;;;;5075431;28;20044;-81
2022/06/19 07:12:34;;;;;;;8.63;1.10;;;14.60;99.90;;;;;;5075754;28;20406;-79
2022/06/19 07:14:59;;;;;;;6.50;0.95;;;14.60;99.90;;;;;;5081421;28;20036;-80
2022/06/19 07:17:25;;;;;;;10.07;1.13;;;14.70;99.90;;;;;;5083775;28;20137;-79
2022/06/19 07:19:51;;;;;;;7.80;1.50;;;14.80;99.90;;;;;;5080959;28;20347;-80
2022/06/19 07:22:18;;;;;;;8.55;1.45;;;14.90;99.90;;;;;;5079402;28;20510;-79
2022/06/19 07:24:44;;;;;;;11.18;1.40;;;15.10;99.90;;;;;;5076257;28;20559;-79
2022/06/19 07:27:10;;;;;;;8.35;2.63;;;15.30;99.90;;;;;;5076582;28;20032;-79
2022/06/19 07:29:41;;;;;;;7.07;0.98;;;15.30;99.90;;;;;;5080976;28;20045;-79
2022/06/19 07:32:07;;;;;;;8.68;1.35;;;15.40;99.90;;;;;;5075135;28;20073;-79
2022/06/19 07:34:33;;;;;;;6.50;1.02;;;15.40;99.90;;;;;;5072131;28;20372;-79
2022/06/19 07:36:59;;;;;;;9.82;0.95;;;15.40;99.90;;;;;;5070056;28;20048;-80
2022/06/19 07:39:24;;;;;;;8.90;0.65;;;15.50;99.90;;;;;;5058857;28;20084;-79
2022/06/19 07:41:51;;;;;;;10.35;1.60;;;15.50;99.90;;;;;;5072148;28;20040;-80
2022/06/19 07:44:16;;;;;;;14.88;1.95;;;15.60;99.90;;;;;;5070622;28;20147;-80
2022/06/19 07:52:12;;;;;;;7.07;1.20;;;15.60;99.90;;;;;;5073942;28;20563;-79
2022/06/19 07:54:37;;;;;;;12.73;1.23;;;15.70;99.90;;;;;;5078676;28;20036;-79
2022/06/19 07:57:03;;;;;;;11.82;1.30;;;15.60;99.90;;;;;;5072219;28;20119;-79
2022/06/19 07:59:29;;;;;;;10.73;1.40;;;15.50;99.90;;;;;;5065793;28;20068;-79
2022/06/19 08:01:54;;;;;;;9.52;1.77;;;15.40;99.90;;;;;;5075364;28;20127;-78
2022/06/19 08:04:21;;;;;;;7.25;1.58;;;15.40;99.90;;;;;;5078458;28;20072;-79
2022/06/19 08:06:47;;;;;;;9.82;1.27;;;15.30;99.90;;;;;;5062612;28;20114;-79
2022/06/19 08:09:12;;;;;;;5.80;1.48;;;15.30;99.90;;;;;;5077577;28;20135;-79
2022/06/19 08:11:38;;;;;;;11.52;1.73;;;15.40;99.90;;;;;;5071101;28;20025;-78
2022/06/19 08:14:03;;;;;;;9.40;1.00;;;15.40;99.90;;;;;;5076579;28;20033;-78
2022/06/19 08:16:29;;;;;;;10.43;1.20;;;15.50;99.90;;;;;;5074506;28;20036;-78
2022/06/19 08:18:54;;;;;;;8.80;1.40;;;15.60;99.90;;;;;;5077574;28;20111;-78
2022/06/19 08:21:20;;;;;;;7.60;1.10;;;15.60;99.90;;;;;;5077240;28;20028;-78
2022/06/19 08:23:46;;;;;;;8.15;0.98;;;15.60;99.90;;;;;;5068231;28;20048;-78
2022/06/19 08:26:12;;;;;;;9.23;1.65;;;15.60;99.90;;;;;;5056604;28;20075;-78
2022/06/19 08:28:42;;;;;;;13.10;1.27;;;15.60;99.90;;;;;;5078956;28;20059;-78
2022/06/19 08:31:08;;;;;;;6.90;1.02;;;15.70;99.90;;;;;;5072868;28;20108;-78
2022/06/19 08:33:33;;;;;;;6.07;1.05;;;15.70;99.90;;;;;;5069824;28;20163;-78
2022/06/19 08:36:04;;;;;;;5.80;1.20;;;15.60;99.90;;;;;;5073238;28;20032;-79
2022/06/19 08:38:35;;;;;;;9.30;1.85;;;15.60;99.90;;;;;;5072398;28;20040;-78
2022/06/19 08:41:38;;;;;;;10.48;1.23;;;15.50;99.90;;;;;;5073819;28;20043;-78
2022/06/19 08:44:32;;;;;;;7.25;0.85;;;15.50;99.90;;;;;;4990371;28;20054;-79
2022/06/19 08:47:19;;;;;;;7.32;1.42;;;15.50;99.90;;;;;;5097391;28;20048;-79
2022/06/19 08:50:07;;;;;;;11.30;1.13;;;15.40;99.90;;;;;;5070732;28;20463;-79
2022/06/19 08:52:38;;;;;;;9.65;1.20;;;15.50;99.90;;;;;;5075339;28;20044;-79
2022/06/19 08:55:15;;;;;;;8.23;1.75;;;15.60;99.90;;;;;;5070179;28;20028;-78
2022/06/19 08:57:57;;;;;;;6.68;1.20;;;15.60;99.90;;;;;;5056615;28;20036;-79
2022/06/19 09:00:32;;;;;;;6.13;1.13;;;15.60;99.90;;;;;;5073512;28;20043;-78
2022/06/19 09:05:36;;;;;;;8.33;1.77;;;15.50;99.90;;;;;;5067600;28;20036;-79
2022/06/19 09:06:24;;;;;;;10.00;1.33;;;15.50;99.90;;;;;;5076125;28;20397;-78
2022/06/19 09:09:25;;;;;;;11.55;1.77;;;15.60;99.90;;;;;;5055685;28;20076;-79
2022/06/19 09:11:54;;;;;;;10.25;2.75;;;15.60;99.90;;;;;;5067231;28;20081;-78
2022/06/19 09:14:44;;;;;;;6.63;1.58;;;15.60;99.90;;;;;;5073820;28;20036;-78
2022/06/19 09:17:38;;;;;;;6.18;1.05;;;15.60;99.90;;;;;;5077670;28;20128;-79
2022/06/19 09:20:18;;;;;;;12.55;1.65;;;15.60;99.90;;;;;;5064501;28;20040;-78
2022/06/19 09:23:08;;;;;;;13.35;3.03;;;15.70;99.90;;;;;;5069410;28;20435;-80
2022/06/19 09:25:56;;;;;;;7.32;1.83;;;15.80;99.90;;;;;;5069189;28;20133;-79
2022/06/19 09:28:39;;;;;;;6.13;1.38;;;15.80;99.90;;;;;;5072527;28;20131;-80
2022/06/19 09:31:20;;;;;;;8.30;0.95;;;15.80;99.90;;;;;;5069678;28;20075;-79
2022/06/19 09:34:05;;;;;;;12.13;2.55;;;15.80;99.90;;;;;;5070143;28;21009;-79
2022/06/19 09:36:40;;;;;;;6.50;1.17;;;15.80;99.90;;;;;;5080922;28;20752;-78
2022/06/19 09:39:11;;;;;;;;;;;15.90;99.90;;;;;;5078335;28;20068;-79
2022/06/19 09:41:47;;;;;;;6.65;2.10;;;15.90;99.90;;;;;;5064559;28;20566;-79
2022/06/19 09:44:36;;;;;;;7.88;1.60;;;16.00;99.90;;;;;;5074093;28;20055;-79
2022/06/19 09:47:18;;;;;;;8.00;2.40;;;16.00;99.90;;;;;;5079188;28;20036;-80
2022/06/19 09:49:54;;;;;;;5.40;2.42;;;16.00;99.90;;;;;;5078320;28;20056;-80
2022/06/19 09:52:37;;;;;;;7.97;1.85;;;16.20;99.90;;;;;;5084771;28;20678;-80
2022/06/19 09:55:11;;;;;;;7.53;2.13;;;16.50;99.90;;;;;;5087143;28;20054;-83
2022/06/19 09:57:45;;;;;;;6.78;1.52;;;16.60;99.90;;;;;;5071816;28;20033;-84
2022/06/19 10:00:17;;;;;;;7.57;0.90;;;16.80;99.90;;;;;;5062073;28;20043;-83
2022/06/19 10:02:45;;;;;;;6.82;1.30;;;16.90;99.90;;;;;;5062485;28;20077;-84
2022/06/19 10:05:21;;;;;;;6.07;1.15;;;17.10;99.90;;;;;;5080220;28;20036;-83
2022/06/19 10:10:45;;;;;;;8.98;1.08;;;17.40;99.90;;;;;;5112281;22;20069;-84
2022/06/19 10:13:51;;;;;;;8.02;1.45;;;17.50;99.90;;;;;;5103513;28;20032;-84
2022/06/19 10:16:44;;;;;;;6.40;1.70;;;17.60;99.90;;;;;;5104877;28;20339;-83
2022/06/19 10:19:19;;;;;;;8.82;2.28;;;17.60;99.90;;;;;;5070818;28;20068;-82
2022/06/19 10:22:30;;;;;;;5.78;1.42;;;17.60;99.90;;;;;;5103176;28;20043;-82
2022/06/19 10:28:47;;;;;;;7.07;1.42;;;17.00;99.90;;;;;;5092009;28;20391;-81
2022/06/19 10:31:40;;;;;;;4.95;0.70;;;16.70;99.90;;;;;;5099230;28;20032;-81
2022/06/19 10:34:26;;;;;;;7.05;1.65;;;16.50;99.90;;;;;;5098548;28;20043;-81
2022/06/19 10:37:16;;;;;;;2.78;0.93;;;16.40;99.90;;;;;;5099222;28;20095;-80
2022/06/19 10:40:12;;;;;;;9.02;1.30;;;16.50;99.90;;;;;;5087400;28;20036;-81
2022/06/19 10:43:09;;;;;;;4.68;1.30;;;16.50;99.90;;;;;;5092829;28;20044;-81
2022/06/19 10:45:35;;;;;;;4.35;0.68;;;16.40;99.90;;;;;;5096980;28;20044;-81
2022/06/19 10:48:22;;;;;;;4.22;0.80;;;16.50;99.90;;;;;;5098486;28;20048;-80
2022/06/19 10:51:07;;;;;;;6.25;1.05;;;16.70;99.90;;;;;;5098840;28;20044;-80
2022/06/19 10:53:53;;;;;;;4.38;0.73;;;16.80;99.90;;;;;;5086191;28;20062;-80
2022/06/19 10:56:59;;;;;;;6.30;0.80;;;16.80;99.90;;;;;;5093540;28;20056;-80
2022/06/19 10:59:25;;;;;;;5.00;0.70;;;17.00;99.90;;;;;;5089438;28;20426;-80
2022/06/19 11:05:20;;;;;;;3.08;0.70;;;17.00;99.90;;;;;;5086802;28;20051;-80
2022/06/19 11:07:45;;;;;;;2.40;0.57;;;17.00;99.90;;;;;;5082582;28;20040;-80
2022/06/19 11:10:19;;;;;;;4.45;0.75;;;17.10;99.90;;;;;;5095737;28;20051;-79
2022/06/19 11:12:49;;;;;;;4.90;0.80;;;17.20;99.90;;;;;;5095735;28;20036;-80
2022/06/19 11:15:33;;;;;;;6.63;0.60;;;17.20;99.90;;;;;;5076403;28;20391;-80
2022/06/19 11:18:18;;;;;;;3.30;0.60;;;17.20;99.90;;;;;;5094741;28;20118;-80
2022/06/19 11:21:06;;;;;;;4.22;0.75;;;17.20;99.90;;;;;;5097772;28;20390;-79
2022/06/19 11:23:49;;;;;;;9.30;1.77;;;17.10;99.90;;;;;;5074675;28;20061;-80
2022/06/19 11:26:16;;;;;;;6.50;1.02;;;17.00;99.90;;;;;;5096459;28;20127;-80
2022/06/19 11:29:13;;;;;;;4.95;1.25;;;16.90;99.90;;;;;;5094681;28;20044;-79
2022/06/19 11:32:04;;;;;;;4.50;0.75;;;17.00;99.90;;;;;;5096409;28;20048;-80
2022/06/19 11:34:51;;;;;;;5.97;0.80;;;17.10;99.90;;;;;;5100380;28;20070;-80
2022/06/19 11:37:31;;;;;;;5.13;0.60;;;17.10;99.90;;;;;;5091904;28;20092;-79
2022/06/19 11:39:59;;;;;;;3.72;0.50;;;17.20;99.90;;;;;;5085461;28;20063;-80
2022/06/19 11:42:31;;;;;;;3.55;0.38;;;17.10;99.90;;;;;;5096268;28;20046;-79
2022/06/19 11:45:14;;;;;;;1.80;0.50;;;17.20;99.90;;;;;;5095518;28;20051;-80
2022/06/19 11:47:42;;;;;;;2.35;0.30;;;17.20;99.90;;;;;;5097346;28;20127;-79
2022/06/19 11:50:16;;;;;;;4.43;0.35;;;17.10;99.90;;;;;;5085882;28;20117;-80
2022/06/19 11:52:56;;;;;;;1.75;0.20;;;16.90;99.90;;;;;;5094794;28;20043;-79
2022/06/19 11:55:32;;;;;;;3.53;0.28;;;16.90;99.90;;;;;;5095338;28;20499;-80
2022/06/19 11:58:31;;;;;;;1.25;0.30;;;16.80;99.90;;;;;;5087019;28;20127;-80
2022/06/19 12:01:07;;;;;;;4.22;0.20;;;16.80;99.90;;;;;;5101091;28;20039;-80
2022/06/19 12:03:43;;;;;;;1.83;0.38;;;16.90;99.90;;;;;;5093714;28;20115;-80
2022/06/19 12:06:11;;;;;;;1.65;0.32;;;17.10;99.90;;;;;;5079663;28;20044;-80
2022/06/19 12:08:58;;;;;;;3.03;0.20;;;17.20;99.90;;;;;;5096018;28;20398;-80
2022/06/19 12:11:37;;;;;;;1.40;0.10;;;17.30;99.90;;;;;;5090478;28;20040;-79
2022/06/19 12:14:05;;;;;;;6.05;2.83;;;17.30;99.90;;;;;;5089098;28;20346;-81
2022/06/19 12:16:30;;;;;;;40.08;23.45;;;17.30;99.90;;;;;;5091944;28;20036;-79
2022/06/19 12:19:24;;;;;;;255.13;176.00;;;17.40;99.90;;;;;;5094481;28;20036;-80
2022/06/19 12:21:59;;;;;;;409.40;272.05;;;17.40;99.90;;;;;;5093775;28;20406;-81
2022/06/19 12:24:40;;;;;;;29.02;16.73;;;17.30;99.90;;;;;;5095959;28;20043;-80
2022/06/19 12:27:17;;;;;;;5.50;2.65;;;17.40;99.90;;;;;;5096228;28;20047;-80
2022/06/19 12:29:54;;;;;;;66.22;54.80;;;17.20;99.90;;;;;;5095583;28;20044;-79
2022/06/19 12:32:50;;;;;;;;;;;;;;;;;;;;;
2022/06/19 12:35:56;;;;;;;2.83;0.20;;;17.20;99.90;;;;;;5108298;28;20077;-79
2022/06/19 13:41:57;;;;;;;3.08;0.40;;;16.70;99.90;;;;;;4778085;22;20044;-80
2022/06/19 13:44:37;;;;;;;4.30;0.30;;;16.70;99.90;;;;;;5091107;28;20047;-80
2022/06/19 13:47:16;;;;;;;1.45;0.40;;;16.70;99.90;;;;;;5084059;28;20079;-80
2022/06/19 13:50:01;;;;;;;3.08;0.30;;;16.70;99.90;;;;;;5091495;28;20040;-80
2022/06/19 13:52:45;;;;;;;;;;;16.80;99.90;;;;;;5088425;28;20067;-80
2022/06/19 13:55:39;;;;;;;2.90;0.70;;;16.80;99.90;;;;;;5096726;28;19915;-80
2022/06/19 13:58:19;;;;;;;2.95;1.45;;;16.80;99.90;;;;;;5069541;28;20086;-80
2022/06/19 14:00:53;;;;;;;5.88;0.70;;;16.70;99.90;;;;;;5075720;28;20040;-80
2022/06/19 14:06:35;;;;;;;3.78;1.30;;;16.90;99.90;;;;;;5082052;28;20044;-80
2022/06/19 14:09:25;;;;;;;2.00;0.30;;;17.20;99.90;;;;;;5085144;28;20052;-80
2022/06/19 14:12:05;;;;;;;2.53;0.20;;;17.40;99.90;;;;;;5072446;28;20048;-80
2022/06/19 14:14:38;;;;;;;2.35;0.65;;;17.60;99.90;;;;;;5055221;28;20040;-80
2022/06/19 14:17:11;;;;;;;2.15;0.28;;;18.10;99.90;;;;;;5072633;28;20040;-79
2022/06/19 14:20:12;;;;;;;3.38;0.30;;;18.40;99.90;;;;;;5079822;28;20028;-81
2022/06/19 14:23:01;;;;;;;1.63;0.20;;;18.80;99.90;;;;;;5076743;28;20525;-80
2022/06/19 14:25:50;;;;;;;1.75;0.20;;;19.30;99.90;;;;;;5084840;28;20554;-80
2022/06/19 14:28:36;;;;;;;1.67;0.30;;;20.50;99.90;;;;;;5065824;28;20468;-81
2022/06/19 14:31:03;;;;;;;1.73;0.20;;;21.10;99.90;;;;;;5081187;28;20080;-81
2022/06/19 14:33:33;;;;;;;3.00;0.40;;;21.60;99.90;;;;;;5088584;28;20036;-81
2022/06/19 14:36:03;;;;;;;2.47;0.40;;;22.20;99.90;;;;;;5102047;28;20035;-80